Time;durP1;ratioP1;P1;durP2;ratioP2;P2;SDS_P1;SDS_P2;PMS_P1;PMS_P2;Temp;Humidity;BMP_temperature;BMP_pressure;BME280_temperature;BME280_humidity;BME280_pressure;Samples;Min_cycle;Max_cycle;Signal;HPM_P1;HPM_P2
2021/04/21 00:01:05;;;;;;;7.73;5.57;;;9.10;99.90;;;;;;4886164;29;20431;-81
2021/04/21 00:03:31;;;;;;;8.73;5.07;;;9.10;99.90;;;;;;4901717;29;20442;-80
2021/04/21 00:05:58;;;;;;;9.07;8.10;;;9.00;99.90;;;;;;4903137;29;20446;-81
2021/04/21 00:08:26;;;;;;;9.60;8.23;;;9.00;99.90;;;;;;4913341;29;20412;-80
2021/04/21 00:10:52;;;;;;;10.80;7.53;;;9.00;99.90;;;;;;4903167;28;20491;-81
2021/04/21 00:13:20;;;;;;;8.43;5.23;;;9.00;99.90;;;;;;4889844;29;20495;-82
2021/04/21 00:15:45;;;;;;;10.20;6.57;;;9.00;99.90;;;;;;4905068;29;20519;-79
2021/04/21 00:18:14;;;;;;;8.93;6.00;;;9.00;99.90;;;;;;4906898;29;20538;-81
2021/04/21 00:20:40;;;;;;;10.50;6.40;;;9.00;99.90;;;;;;4906672;29;20179;-79
2021/04/21 00:23:11;;;;;;;7.87;5.90;;;9.00;99.90;;;;;;4909716;29;20438;-81
2021/04/21 00:25:40;;;;;;;11.63;6.27;;;9.00;99.90;;;;;;4902467;29;20410;-79
2021/04/21 00:28:08;;;;;;;7.17;6.00;;;8.90;99.90;;;;;;4900513;29;20444;-81
2021/04/21 00:30:35;;;;;;;10.23;7.17;;;8.80;99.90;;;;;;4902410;29;20483;-82
2021/04/21 00:33:02;;;;;;;7.37;6.67;;;8.70;99.90;;;;;;4902132;29;20441;-80
2021/04/21 00:35:32;;;;;;;15.33;7.13;;;8.60;99.90;;;;;;4901168;29;20424;-81
2021/04/21 00:38:01;;;;;;;7.33;6.03;;;8.60;99.90;;;;;;4903396;29;20398;-80
2021/04/21 00:40:57;;;;;;;9.00;6.70;;;8.50;99.90;;;;;;4897669;29;20442;-81
2021/04/21 00:43:46;;;;;;;7.10;5.50;;;8.50;99.90;;;;;;4902482;29;20490;-79
2021/04/21 00:46:19;;;;;;;7.83;6.40;;;8.50;99.90;;;;;;4917854;29;20447;-81
2021/04/21 00:49:04;;;;;;;9.67;5.47;;;8.60;99.90;;;;;;4906985;29;20445;-82
2021/04/21 00:51:52;;;;;;;7.13;6.20;;;8.60;99.90;;;;;;4903418;29;20797;-80
2021/04/21 00:54:22;;;;;;;8.10;6.20;;;8.50;99.90;;;;;;4902455;29;20419;-82
2021/04/21 00:57:02;;;;;;;6.43;5.33;;;8.50;99.90;;;;;;4900124;29;20496;-81
2021/04/21 00:59:46;;;;;;;6.90;6.20;;;8.60;99.90;;;;;;4898018;29;20424;-81
2021/04/21 01:02:15;;;;;;;19.07;5.73;;;8.60;99.90;;;;;;4906134;29;20460;-81
2021/04/21 01:04:42;;;;;;;6.73;5.73;;;8.50;99.90;;;;;;4917448;29;20419;-81
2021/04/21 01:07:13;;;;;;;7.17;5.40;;;8.50;99.90;;;;;;4933684;29;20449;-79
2021/04/21 01:09:40;;;;;;;10.00;6.60;;;8.50;99.90;;;;;;4915436;29;20541;-81
2021/04/21 01:15:12;;;;;;;9.20;5.73;;;8.60;99.90;;;;;;4901892;29;20588;-86
2021/04/21 01:17:43;;;;;;;7.93;5.90;;;8.50;99.90;;;;;;4917941;29;20419;-88
2021/04/21 01:20:16;;;;;;;8.17;5.07;;;8.50;99.90;;;;;;4902824;29;20429;-86
2021/04/21 01:22:47;;;;;;;5.17;4.67;;;8.40;99.90;;;;;;4934509;28;20442;-87
2021/04/21 01:25:53;;;;;;;10.40;6.27;;;8.30;99.90;;;;;;5017019;28;20435;-86
2021/04/21 01:28:26;;;;;;;7.20;5.50;;;8.10;99.90;;;;;;5001368;28;20403;-86
2021/04/21 01:30:54;;;;;;;7.60;6.10;;;8.10;99.90;;;;;;5018490;28;20451;-86
2021/04/21 01:33:28;;;;;;;8.10;5.90;;;8.10;99.90;;;;;;5021572;28;20509;-87
2021/04/21 01:36:00;;;;;;;7.60;6.10;;;8.10;99.90;;;;;;5018875;28;20503;-87
2021/04/21 01:38:32;;;;;;;6.00;5.50;;;8.10;99.90;;;;;;5017827;28;20463;-87
2021/04/21 01:41:03;;;;;;;11.23;5.47;;;8.10;99.90;;;;;;5008431;28;20445;-87
2021/04/21 01:43:44;;;;;;;6.30;5.37;;;8.00;99.90;;;;;;5025211;28;20469;-86
2021/04/21 01:46:17;;;;;;;10.43;5.53;;;7.90;99.90;;;;;;5025295;28;20416;-85
2021/04/21 01:48:47;;;;;;;6.67;5.53;;;7.90;99.90;;;;;;5019857;28;20435;-85
2021/04/21 01:51:15;;;;;;;10.83;5.67;;;7.90;99.90;;;;;;5032977;28;20471;-86
2021/04/21 01:53:45;;;;;;;13.53;6.20;;;8.00;99.90;;;;;;5017870;28;20451;-88
2021/04/21 01:56:28;;;;;;;7.63;6.50;;;8.00;99.90;;;;;;5033240;28;20434;-86
2021/04/21 01:59:23;;;;;;;8.17;6.07;;;8.00;99.90;;;;;;5020160;28;20471;-86
2021/04/21 02:02:10;;;;;;;8.20;7.40;;;7.90;99.90;;;;;;5018347;28;20424;-86
2021/04/21 02:05:11;;;;;;;10.23;6.43;;;7.90;99.90;;;;;;5001438;28;20487;-86
2021/04/21 02:08:03;;;;;;;6.20;5.57;;;7.80;99.90;;;;;;5000824;28;20423;-87
2021/04/21 02:10:51;;;;;;;7.10;6.10;;;7.80;99.90;;;;;;5001179;28;20431;-87
2021/04/21 02:13:34;;;;;;;9.30;5.13;;;7.70;99.90;;;;;;4999928;28;20444;-87
2021/04/21 02:16:20;;;;;;;7.60;6.27;;;7.70;99.90;;;;;;5016519;28;20400;-86
2021/04/21 02:18:52;;;;;;;8.27;5.90;;;7.60;99.90;;;;;;5016984;28;20415;-87
2021/04/21 02:21:27;;;;;;;8.03;6.77;;;7.50;99.90;;;;;;5017506;28;20420;-87
2021/04/21 02:24:49;;;;;;;9.83;5.10;;;7.50;99.90;;;;;;5017770;28;20423;-86
2021/04/21 02:27:44;;;;;;;6.20;5.60;;;7.50;99.90;;;;;;4973252;28;20415;-84
2021/04/21 02:30:16;;;;;;;7.90;5.13;;;;;;;;;;5003034;28;20479;-86
2021/04/21 02:33:01;;;;;;;6.17;4.87;;;;;;;;;;5009922;28;20534;-86
2021/04/21 02:35:27;;;;;;;8.83;5.50;;;;;;;;;;5022664;28;20466;-87
2021/04/21 02:38:04;;;;;;;9.00;6.30;;;;;;;;;;5005134;28;20458;-87
2021/04/21 02:40:47;;;;;;;7.47;5.97;;;;;;;;;;5023239;28;20454;-87
2021/04/21 02:43:31;;;;;;;13.63;5.97;;;;;;;;;;5003281;28;20525;-87
2021/04/21 02:46:03;;;;;;;6.07;5.57;;;;;;;;;;5004046;28;20392;-86
2021/04/21 02:48:37;;;;;;;7.53;5.73;;;;;;;;;;5019344;28;20411;-89
2021/04/21 02:51:08;;;;;;;6.17;5.00;;;;;;;;;;5005219;28;20954;-86
2021/04/21 02:53:40;;;;;;;9.13;6.40;;;;;;;;;;5025671;28;20936;-87
2021/04/21 02:56:34;;;;;;;7.50;6.50;;;7.50;99.90;;;;;;5021503;28;20407;-84
2021/04/21 02:59:16;;;;;;;7.67;5.87;;;7.20;99.90;;;;;;5004145;28;20404;-85
2021/04/21 03:02:17;;;;;;;8.23;7.53;;;7.10;99.90;;;;;;5004453;28;20475;-88
2021/04/21 03:04:58;;;;;;;9.63;7.00;;;;;;;;;;5001731;28;20419;-87
2021/04/21 03:07:46;;;;;;;12.80;7.80;;;;;;;;;;5019553;28;20408;-87
2021/04/21 03:10:17;;;;;;;7.47;6.13;;;;;;;;;;5006648;28;20422;-86
2021/04/21 03:12:46;;;;;;;10.90;6.30;;;;;;;;;;5008822;28;20475;-87
2021/04/21 03:15:16;;;;;;;5.80;5.27;;;;;;;;;;5005040;28;20392;-87
2021/04/21 03:17:42;;;;;;;8.10;6.60;;;;;;;;;;5021348;28;20415;-85
2021/04/21 03:20:13;;;;;;;9.60;6.27;;;;;;;;;;5022541;28;20415;-86
2021/04/21 03:22:44;;;;;;;6.00;5.40;;;;;;;;;;5006739;28;20439;-87
2021/04/21 03:25:11;;;;;;;8.83;5.80;;;;;;;;;;5007410;28;20908;-84
2021/04/21 03:27:41;;;;;;;11.93;6.27;;;;;;;;;;5007658;28;20416;-84
2021/04/21 03:30:10;;;;;;;6.47;5.83;;;;;;;;;;5033841;28;20432;-87
2021/04/21 03:32:38;;;;;;;9.50;6.47;;;;;;;;;;5005574;28;20428;-86
2021/04/21 03:35:08;;;;;;;6.63;6.03;;;;;;;;;;5021308;28;20399;-86
2021/04/21 03:37:50;;;;;;;8.83;6.13;;;;;;;;;;5021159;28;20232;-87
2021/04/21 03:40:17;;;;;;;5.43;5.03;;;;;;;;;;5019652;28;20412;-87
2021/04/21 03:42:44;;;;;;;6.75;6.05;;;;;;;;;;5018755;28;20498;-85
2021/04/21 03:45:14;;;;;;;8.23;6.47;;;;;;;;;;5017686;28;20175;-86
2021/04/21 03:47:43;;;;;;;8.10;7.40;;;;;;;;;;5002758;28;20889;-85
2021/04/21 03:50:12;;;;;;;11.87;6.03;;;;;;;;;;5030763;28;20391;-88
2021/04/21 03:52:40;;;;;;;7.20;6.37;;;;;;;;;;5006389;28;20439;-88
2021/04/21 03:55:07;;;;;;;8.00;6.90;;;;;;;;;;5020294;28;20407;-87
2021/04/21 03:57:34;;;;;;;8.97;7.20;;;;;;;;;;5020294;28;20419;-86
2021/04/21 04:00:03;;;;;;;9.15;6.63;;;;;;;;;;5025189;28;20412;-89
2021/04/21 04:02:40;;;;;;;10.60;6.03;;;;;;;;;;5008931;28;20218;-88
2021/04/21 04:05:09;;;;;;;10.33;6.10;;;;;;;;;;5020728;28;20423;-87
2021/04/21 04:07:41;;;;;;;7.47;5.80;;;;;;;;;;5020141;28;20422;-86
2021/04/21 04:10:17;;;;;;;6.50;5.87;;;;;;;;;;5021237;28;20175;-86
2021/04/21 04:12:44;;;;;;;9.75;5.95;;;;;;;;;;5019565;28;20462;-86
2021/04/21 04:15:19;;;;;;;10.83;9.53;;;;;;;;;;5005461;28;20558;-87
2021/04/21 04:17:47;;;;;;;14.68;13.35;;;;;;;;;;5022409;28;20415;-85
2021/04/21 04:20:15;;;;;;;9.33;7.37;;;;;;;;;;5023432;28;20183;-85
2021/04/21 04:22:43;;;;;;;10.23;8.23;;;;;;;;;;5004331;28;20451;-88
2021/04/21 04:25:20;;;;;;;8.90;8.00;;;;;;;;;;5010544;28;20417;-86
2021/04/21 04:27:52;;;;;;;13.10;11.83;;;;;;;;;;5018060;28;20418;-88
2021/04/21 04:30:22;;;;;;;14.37;13.00;;;;;;;;;;5016563;28;20992;-87
2021/04/21 04:32:52;;;;;;;11.27;9.20;;;;;;;;;;5001704;28;20431;-87
2021/04/21 04:35:18;;;;;;;13.63;12.23;;;;;;;;;;5017815;28;20431;-87
2021/04/21 04:37:44;;;;;;;10.23;7.50;;;;;;;;;;5018719;28;20416;-86
2021/04/21 04:40:15;;;;;;;8.33;7.57;;;;;;;;;;5018313;28;20392;-87
2021/04/21 04:42:42;;;;;;;11.60;8.37;;;;;;;;;;5018921;28;20422;-87
2021/04/21 04:45:09;;;;;;;9.30;8.60;;;;;;;;;;5017296;28;20438;-88
2021/04/21 04:47:46;;;;;;;9.60;6.47;;;;;;;;;;5017278;28;20427;-86
2021/04/21 04:50:16;;;;;;;9.40;8.40;;;;;;;;;;5018298;28;20427;-87
2021/04/21 04:52:49;;;;;;;13.13;6.60;;;;;;;;;;5018618;28;20496;-88
2021/04/21 04:55:23;;;;;;;7.93;7.10;;;;;;;;;;5018138;28;20408;-86
2021/04/21 04:57:56;;;;;;;10.33;7.50;;;;;;;;;;5017451;28;20418;-87
2021/04/21 05:00:52;;;;;;;8.00;6.80;;;;;;;;;;5016896;28;20400;-87
2021/04/21 05:03:24;;;;;;;10.53;9.50;;;;;;;;;;5004741;28;20447;-87
2021/04/21 05:06:15;;;;;;;11.70;7.23;;;;;;;;;;5005327;28;20451;-86
2021/04/21 05:09:04;;;;;;;15.70;7.07;;;;;;;;;;5005142;28;20469;-85
2021/04/21 05:11:34;;;;;;;17.33;7.60;;;;;;;;;;5008395;28;20451;-85
2021/04/21 05:14:12;;;;;;;7.17;6.27;;;;;;;;;;5005006;28;20535;-84
2021/04/21 05:16:59;;;;;;;10.43;6.40;;;;;;;;;;5013321;28;20427;-86
2021/04/21 05:19:59;;;;;;;8.50;7.43;;;;;;;;;;5014426;28;20444;-87
2021/04/21 05:22:30;;;;;;;7.60;6.80;;;;;;;;;;5013502;28;20436;-86
2021/04/21 05:28:24;;;;;;;9.20;7.00;;;;;;;;;;5029392;28;20415;-86
2021/04/21 05:34:37;;;;;;;12.60;6.80;;;;;;;;;;5006905;28;20451;-87
2021/04/21 05:37:32;;;;;;;;;;;;;;;;;;;;;
2021/04/21 05:40:43;;;;;;;;;;;;;;;;;;;;;
2021/04/21 05:43:40;;;;;;;9.53;8.63;;;;;;;;;;5025879;28;20462;-87
2021/04/21 05:46:30;;;;;;;9.80;7.60;;;;;;;;;;5009295;28;20463;-87
2021/04/21 05:49:00;;;;;;;9.83;7.73;;;;;;;;;;5006982;28;20417;-88
2021/04/21 05:51:42;;;;;;;11.53;8.30;;;;;;;;;;5006778;28;20454;-87
2021/04/21 05:54:27;;;;;;;9.53;8.50;;;;;;;;;;5007113;28;20415;-87
2021/04/21 05:57:14;;;;;;;9.70;8.70;;;;;;;;;;5005088;28;20505;-88
2021/04/21 05:59:49;;;;;;;11.07;9.90;;;;;;;;;;5006233;28;20426;-88
2021/04/21 06:02:24;;;;;;;9.50;8.47;;;;;;;;;;5005928;28;20398;-85
2021/04/21 06:05:03;;;;;;;12.33;8.63;;;;;;;;;;5006031;28;20411;-86
2021/04/21 06:07:32;;;;;;;13.40;10.30;;;;;;;;;;5022836;28;20466;-88
2021/04/21 06:10:40;;;;;;;;;;;;;;;;;;;;;
2021/04/21 06:13:14;;;;;;;11.43;9.57;;;;;;;;;;5008597;28;20455;-88
2021/04/21 06:15:47;;;;;;;11.90;9.07;;;;;;;;;;5029467;28;20454;-88
2021/04/21 06:18:21;;;;;;;10.60;9.47;;;;;;;;;;5028938;28;20435;-89
2021/04/21 06:20:51;;;;;;;12.93;9.27;;;;;;;;;;5028584;28;20470;-87
2021/04/21 06:23:27;;;;;;;9.27;8.10;;;;;;;;;;5027937;28;20427;-88
2021/04/21 06:26:17;;;;;;;15.37;10.50;;;;;;;;;;5014334;28;20425;-87
2021/04/21 06:28:44;;;;;;;9.90;8.93;;;;;;;;;;5016052;28;20404;-88
2021/04/21 06:31:36;;;;;;;11.97;8.23;;;;;;;;;;5014619;28;20486;-88
2021/04/21 06:35:06;;;;;;;14.37;11.00;;;;;;;;;;5026756;28;20990;-86
2021/04/21 06:37:53;;;;;;;12.30;10.43;;;;;;;;;;5026092;28;20416;-89
2021/04/21 06:40:30;;;;;;;10.97;9.90;;;;;;;;;;5025924;28;20384;-86
2021/04/21 06:43:13;;;;;;;15.17;9.90;;;;;;;;;;5010650;28;20431;-87
2021/04/21 06:45:39;;;;;;;18.33;10.33;;;;;;;;;;5011675;28;20411;-88
2021/04/21 06:48:47;;;;;;;9.60;8.70;;;;;;;;;;5011749;28;20483;-87
2021/04/21 06:54:55;;;;;;;13.77;11.60;;;;;;;;;;5020263;28;20407;-85
2021/04/21 06:57:39;;;;;;;11.93;9.60;;;;;;;;;;5016579;28;20480;-89
2021/04/21 07:00:45;;;;;;;13.00;9.77;;;;;;;;;;4996578;28;20461;-88
2021/04/21 07:04:14;;;;;;;14.40;9.83;;;;;;;;;;4986200;28;20924;-88
2021/04/21 07:07:05;;;;;;;;;;;;;;;;;;;;;
2021/04/21 07:09:51;;;;;;;14.70;8.53;;;;;;;;;;4967109;28;20453;-88
2021/04/21 07:12:50;;;;;;;10.67;8.03;;;;;;;;;;4998323;22;20475;-84
2021/04/21 07:15:20;;;;;;;10.50;8.63;;;;;;;;;;5020058;28;20497;-83
2021/04/21 07:17:48;;;;;;;7.77;7.03;;;;;;;;;;5010089;28;20466;-84
2021/04/21 07:20:54;;;;;;;;;;;;;;;;;;;;;
2021/04/21 07:23:22;;;;;;;7.23;6.20;;;;;;;;;;5030553;28;20419;-86
2021/04/21 07:25:52;;;;;;;7.60;6.87;;;;;;;;;;5019279;28;20424;-85
2021/04/21 07:28:20;;;;;;;7.43;6.73;;;;;;;;;;5000689;28;20443;-85
2021/04/21 07:30:47;;;;;;;8.50;7.70;;;;;;;;;;5003326;28;20456;-84
2021/04/21 07:33:13;;;;;;;10.73;9.20;;;;;;;;;;4987361;28;20493;-84
2021/04/21 07:35:40;;;;;;;8.50;7.37;;;;;;;;;;5003723;28;20403;-83
2021/04/21 07:38:21;;;;;;;15.37;7.83;;;;;;;;;;5005556;28;20407;-83
2021/04/21 07:40:51;;;;;;;10.57;6.90;;;;;;;;;;4991877;28;20419;-84
2021/04/21 07:43:18;;;;;;;11.17;8.47;;;;;;;;;;4990573;28;20459;-84
2021/04/21 07:45:50;;;;;;;9.83;8.03;;;;;;;;;;5008471;28;20502;-84
2021/04/21 07:48:35;;;;;;;7.60;6.80;;;;;;;;;;4990462;28;20420;-83
2021/04/21 07:51:13;;;;;;;8.20;7.40;;;;;;;;;;5008309;28;20474;-82
2021/04/21 07:53:45;;;;;;;14.97;7.63;;;;;;;;;;5006960;28;20974;-83
2021/04/21 07:56:12;;;;;;;10.57;8.10;;;;;;;;;;5008104;28;20480;-83
2021/04/21 07:58:41;;;;;;;9.10;8.27;;;;;;;;;;5007684;28;20411;-83
2021/04/21 08:01:18;;;;;;;;;;;;;;;;;;;;;
2021/04/21 08:04:17;;;;;;;11.90;8.20;;;;;;;;;;5008368;28;20863;-81
2021/04/21 08:06:46;;;;;;;7.63;6.83;;;;;;;;;;5008465;28;20415;-83
2021/04/21 08:09:13;;;;;;;13.23;8.87;;;;;;;;;;5004012;28;20431;-83
2021/04/21 08:11:40;;;;;;;9.30;7.80;;;;;;;;;;5007120;28;21007;-82
2021/04/21 08:14:06;;;;;;;7.93;7.30;;;;;;;;;;5007551;28;20451;-83
2021/04/21 08:16:38;;;;;;;8.97;7.33;;;;;;;;;;5009712;28;20424;-83
2021/04/21 08:19:15;;;;;;;7.87;7.27;;;;;;;;;;5017646;28;20400;-83
2021/04/21 08:21:42;;;;;;;8.13;7.10;;;;;;;;;;5018105;28;20380;-84
2021/04/21 08:24:09;;;;;;;10.13;8.20;;;;;;;;;;5001053;28;20999;-80
2021/04/21 08:26:38;;;;;;;16.97;7.10;;;;;;;;;;5016995;28;20418;-81
2021/04/21 08:29:08;;;;;;;11.70;7.50;;;;;;;;;;5017184;28;20470;-82
2021/04/21 08:31:35;;;;;;;8.03;6.80;;;;;;;;;;5017761;28;20486;-81
2021/04/21 08:34:08;;;;;;;8.10;7.10;;;;;;;;;;5000912;28;20515;-83
2021/04/21 08:36:37;;;;;;;12.77;7.47;;;;;;;;;;5017593;28;20416;-82
2021/04/21 08:42:43;;;;;;;11.13;6.40;;;;;;;;;;5004527;28;20431;-84
2021/04/21 08:45:53;;;;;;;8.27;7.57;;;;;;;;;;4956517;28;20434;-84
2021/04/21 09:00:46;;;;;;;13.53;7.70;;;;;;;;;;1317675;26;20633;-80
2021/04/21 09:03:13;;;;;;;8.87;8.00;;;;;;;;;;5014912;23;20474;-85
2021/04/21 09:05:39;;;;;;;7.37;6.67;;;;;;;;;;5017429;28;20431;-84
2021/04/21 09:08:08;;;;;;;9.27;8.23;;;;;;;;;;5016164;28;20446;-85
2021/04/21 09:10:37;;;;;;;6.43;5.80;;;;;;;;;;5041515;28;20518;-82
2021/04/21 09:13:11;;;;;;;8.00;7.20;;;;;;;;;;5020798;28;20568;-83
2021/04/21 09:15:38;;;;;;;7.77;6.97;;;;;;;;;;5038632;28;20439;-83
2021/04/21 09:18:14;;;;;;;11.47;8.20;;;;;;;;;;5025528;28;20413;-84
2021/04/21 09:20:47;;;;;;;9.10;8.20;;;;;;;;;;5021388;28;20414;-84
2021/04/21 09:23:19;;;;;;;9.63;7.70;;;;;;;;;;5022606;28;20435;-83
2021/04/21 09:25:47;;;;;;;10.00;9.00;;;;;;;;;;5021975;28;20912;-84
2021/04/21 09:28:20;;;;;;;12.13;7.77;;;;;;;;;;5037077;28;20946;-85
2021/04/21 09:31:12;;;;;;;12.10;8.90;;;;;;;;;;5020186;28;20457;-83
2021/04/21 09:33:39;;;;;;;9.97;7.83;;;;;;;;;;5021963;28;20438;-84
2021/04/21 09:36:12;;;;;;;8.17;7.17;;;;;;;;;;5022782;28;20484;-84
2021/04/21 09:38:39;;;;;;;8.10;6.20;;;;;;;;;;5021783;28;20425;-84
2021/04/21 09:41:25;;;;;;;8.67;7.87;;;;;;;;;;5024107;28;20463;-82
2021/04/21 09:43:52;;;;;;;11.30;7.70;;;;;;;;;;5036491;28;20479;-85
2021/04/21 09:46:19;;;;;;;9.33;8.43;;;;;;;;;;5036510;28;20424;-82
2021/04/21 09:48:46;;;;;;;12.63;7.97;;;;;;;;;;5020436;28;20429;-82
2021/04/21 09:51:13;;;;;;;10.23;7.77;;;;;;;;;;5035291;28;20501;-85
2021/04/21 09:53:43;;;;;;;9.03;7.60;;;;;;;;;;5020946;28;20469;-84
2021/04/21 09:56:14;;;;;;;9.10;8.17;;;;;;;;;;5020355;28;20413;-83
2021/04/21 09:58:45;;;;;;;9.17;7.27;;;;;;;;;;5022320;28;20965;-83
2021/04/21 10:01:30;;;;;;;8.97;7.60;;;;;;;;;;5037612;28;20424;-83
2021/04/21 10:04:07;;;;;;;8.70;7.80;;;;;;;;;;5020882;28;20436;-83
2021/04/21 10:06:33;;;;;;;8.50;7.80;;;;;;;;;;5019781;28;20405;-82
2021/04/21 10:08:59;;;;;;;9.57;7.30;;;;;;;;;;5019472;28;20413;-84
2021/04/21 10:11:26;;;;;;;8.00;7.17;;;;;;;;;;5019033;28;20999;-83
2021/04/21 10:13:53;;;;;;;9.07;8.17;;;;;;;;;;5020769;28;20540;-82
2021/04/21 10:16:20;;;;;;;9.87;8.53;;;;;;;;;;5022252;28;20425;-84
2021/04/21 10:18:47;;;;;;;7.77;6.90;;;;;;;;;;5027015;28;20437;-84
2021/04/21 10:21:14;;;;;;;11.03;8.03;;;;;;;;;;5022113;28;20806;-85
2021/04/21 10:23:54;;;;;;;8.20;7.47;;;;;;;;;;5020704;28;20441;-84
2021/04/21 10:27:11;;;;;;;;;;;;;;;;;;;;;
2021/04/21 10:30:13;;;;;;;8.90;8.00;;;;;;;;;;4974528;28;20487;-85
2021/04/21 10:32:40;;;;;;;7.87;7.10;;;;;;;;;;4986937;28;20461;-82
2021/04/21 10:35:13;;;;;;;10.13;8.10;;;;;;;;;;5003135;28;20419;-84
2021/04/21 10:37:41;;;;;;;8.73;7.30;;;15.70;91.60;;;;;;5005252;28;20420;-84
2021/04/21 10:40:11;;;;;;;10.73;8.47;;;15.70;91.70;;;;;;4985467;28;20482;-83
2021/04/21 10:45:25;;;;;;;7.67;6.87;;;;;;;;;;5130376;23;20477;-81
2021/04/21 10:47:52;;;;;;;7.97;6.70;;;;;;;;;;5027093;28;20421;-84
2021/04/21 10:50:36;;;;;;;10.00;7.47;;;;;;;;;;5025555;28;20430;-83
2021/04/21 10:53:03;;;;;;;7.47;6.23;;;;;;;;;;5019101;28;20454;-87
2021/04/21 10:59:00;;;;;;;7.30;5.43;;;;;;;;;;4966256;29;20501;-86
2021/04/21 11:01:55;;;;;;;6.93;6.33;;;;;;;;;;4938471;28;20478;-87
2021/04/21 11:04:41;;;;;;;6.77;6.17;;;;;;;;;;4965291;29;20444;-87
2021/04/21 11:07:26;;;;;;;9.43;4.63;;;;;;;;;;4947995;29;20468;-83
2021/04/21 11:09:53;;;;;;;5.70;5.10;;;;;;;;;;4964441;29;20405;-84
2021/04/21 11:12:39;;;;;;;5.70;5.20;;;;;;;;;;4948183;29;20453;-83
2021/04/21 11:15:06;;;;;;;6.13;4.20;;;;;;;;;;4948347;29;20428;-83
2021/04/21 11:17:52;;;;;;;4.93;4.60;;;;;;;;;;4962366;29;20413;-83
2021/04/21 11:20:37;;;;;;;5.27;4.67;;;;;;;;;;4930505;29;20544;-84
2021/04/21 11:23:03;;;;;;;6.73;5.10;;;;;;;;;;4960709;29;20443;-82
2021/04/21 11:25:30;;;;;;;7.70;5.93;;;;;;;;;;4947780;29;20424;-84
2021/04/21 11:27:58;;;;;;;4.93;4.47;;;;;;;;;;4949200;29;20405;-82
2021/04/21 11:30:37;;;;;;;7.20;5.13;;;;;;;;;;4954294;29;20500;-84
2021/04/21 11:33:03;;;;;;;8.67;5.30;;;;;;;;;;4948558;29;20943;-83
2021/04/21 11:35:30;;;;;;;7.60;5.30;;;;;;;;;;4973746;28;20411;-84
2021/04/21 11:37:57;;;;;;;5.47;4.93;;;;;;;;;;5024295;28;20918;-82
2021/04/21 11:40:30;;;;;;;7.83;6.23;;;;;;;;;;5025991;28;20426;-83
2021/04/21 11:43:13;;;;;;;6.10;5.50;;;;;;;;;;5024269;28;20441;-83
2021/04/21 11:45:39;;;;;;;6.07;4.73;;;;;;;;;;5024762;28;20437;-81
2021/04/21 11:48:09;;;;;;;5.47;5.07;;;;;;;;;;5022634;28;20509;-84
2021/04/21 11:53:58;;;;;;;4.97;4.60;;;;;;;;;;5005017;28;20544;-84
2021/04/21 11:56:25;;;;;;;6.83;4.70;;;;;;;;;;5022343;28;20438;-83
2021/04/21 11:58:55;;;;;;;8.50;4.90;;;;;;;;;;5022942;28;20414;-83
2021/04/21 12:01:25;;;;;;;7.23;5.90;;;;;;;;;;5023975;28;20857;-84
2021/04/21 12:03:52;;;;;;;5.40;4.33;;;;;;;;;;5021393;28;20430;-83
2021/04/21 12:06:19;;;;;;;4.87;4.57;;;;;;;;;;5022133;28;20938;-84
2021/04/21 12:08:47;;;;;;;5.50;4.77;;;;;;;;;;5021432;28;20757;-83
2021/04/21 12:11:13;;;;;;;4.93;4.40;;;;;;;;;;5022858;28;20438;-84
2021/04/21 12:13:43;;;;;;;5.43;4.17;;;;;;;;;;5021533;28;20466;-85
2021/04/21 12:16:10;;;;;;;4.80;4.40;;;;;;;;;;5022632;28;20414;-83
2021/04/21 12:18:45;;;;;;;5.63;5.03;;;;;;;;;;5021091;28;20457;-82
2021/04/21 12:21:17;;;;;;;4.83;4.43;;;;;;;;;;5024218;28;20406;-84
2021/04/21 12:23:44;;;;;;;7.57;5.13;;;;;;;;;;5011804;28;20418;-82
2021/04/21 12:26:19;;;;;;;5.00;4.33;;;;;;;;;;5027757;28;20448;-84
2021/04/21 12:28:56;;;;;;;4.83;4.33;;;;;;;;;;5030169;28;20397;-83
2021/04/21 12:31:22;;;;;;;5.10;3.70;;;;;;;;;;5024096;28;20453;-84
2021/04/21 12:33:50;;;;;;;8.50;4.57;;;;;;;;;;5023132;28;20433;-83
2021/04/21 12:36:23;;;;;;;4.40;4.00;;;;;;;;;;5022770;28;20415;-85
2021/04/21 12:39:10;;;;;;;4.40;3.93;;;;;;;;;;5006331;28;20421;-83
2021/04/21 12:41:44;;;;;;;5.63;4.90;;;;;;;;;;5022904;28;20418;-82
2021/04/21 12:44:22;;;;;;;7.10;4.03;;;16.30;73.80;;;;;;5020159;28;20472;-83
2021/04/21 12:46:49;;;;;;;5.83;4.57;;;;;;;;;;5003575;28;20438;-83
2021/04/21 12:49:15;;;;;;;4.77;4.33;;;;;;;;;;5019634;28;20516;-83
2021/04/21 12:51:46;;;;;;;9.93;5.00;;;;;;;;;;5020990;28;20456;-83
2021/04/21 12:54:30;;;;;;;109.40;55.57;;;;;;;;;;5020068;28;20529;-83
2021/04/21 12:56:56;;;;;;;91.47;43.00;;;;;;;;;;5003106;28;20412;-84
2021/04/21 12:59:22;;;;;;;9.03;4.83;;;;;;;;;;5020848;28;20911;-84
2021/04/21 13:01:48;;;;;;;5.47;4.40;;;;;;;;;;5004175;28;20497;-84
2021/04/21 13:04:19;;;;;;;7.73;6.03;;;;;;;;;;5004622;28;20459;-82
2021/04/21 13:06:46;;;;;;;13.20;6.90;;;;;;;;;;5004756;28;20468;-83
2021/04/21 13:09:13;;;;;;;5.03;4.17;;;;;;;;;;5020208;28;20411;-83
2021/04/21 13:11:44;;;;;;;5.37;4.87;;;;;;;;;;5021319;28;20481;-83
2021/04/21 13:27:55;;;;;;;7.03;4.90;;;;;;;;;;1327076;26;20462;-86
2021/04/21 13:31:43;;;;;;;4.87;4.47;;;16.20;75.80;;;;;;5021956;28;20553;-86
2021/04/21 13:48:36;;;;;;;;;;;;;;;;;;;;;
2021/04/21 14:18:32;;;;;;;7.47;4.43;;;;;;;;;;4981348;28;20392;-84
2021/04/21 14:25:38;;;;;;;6.47;5.60;;;;;;;;;;5079628;22;20499;-85
2021/04/21 14:28:51;;;;;;;7.13;5.43;;;;;;;;;;5045454;28;20444;-81
2021/04/21 14:35:15;;;;;;;6.67;5.00;;;;;;;;;;5165684;23;20525;-83
2021/04/21 14:42:28;;;;;;;;;;;;;;;;;;;;;
2021/04/21 14:45:23;;;;;;;6.17;4.80;;;;;;;;;;5066850;22;20484;-84
2021/04/21 14:51:48;;;;;;;5.30;4.27;;;;;;;;;;4989170;28;20490;-82
2021/04/21 15:41:07;;;;;;;10.70;8.17;;;;;;;;;;5024438;28;20409;-83
2021/04/21 15:43:37;;;;;;;9.30;8.10;;;;;;;;;;4987046;28;20447;-84
2021/04/21 15:46:04;;;;;;;7.10;6.40;;;;;;;;;;4987573;28;20418;-85
2021/04/21 15:48:41;;;;;;;7.30;6.73;;;;;;;;;;4988607;28;20490;-84
2021/04/21 15:51:21;;;;;;;8.37;7.23;;;;;;;;;;4987084;28;20562;-85
2021/04/21 15:54:24;;;;;;;8.00;6.83;;;;;;;;;;5002082;28;20539;-84
2021/04/21 15:57:18;;;;;;;8.27;7.47;;;;;;;;;;4988438;28;21061;-86
2021/04/21 16:03:51;;;;;;;;;;;;;;;;;;;;;
2021/04/21 16:06:46;;;;;;;8.60;7.70;;;;;;;;;;4954749;28;20960;-85
2021/04/21 16:43:52;;;;;;;12.73;9.87;;;;;;;;;;4909701;29;20515;-86
2021/04/21 16:50:36;;;;;;;;;;;;;;;;;;;;;
2021/04/21 16:57:10;;;;;;;;;;;;;;;;;;;;;
2021/04/21 17:03:53;;;;;;;13.00;11.67;;;;;;;;;;4875124;29;20441;-86
2021/04/21 17:10:34;;;;;;;12.50;11.30;;;;;;;;;;4929347;29;20529;-84
2021/04/21 17:13:11;;;;;;;16.03;14.43;;;;;;;;;;4934966;29;20426;-85
2021/04/21 17:15:59;;;;;;;16.00;14.37;;;;;;;;;;4935560;29;20412;-84
2021/04/21 17:18:25;;;;;;;17.40;15.77;;;;;;;;;;4915251;29;20408;-86
2021/04/21 17:21:19;;;;;;;17.20;15.50;;;;;;;;;;4927076;29;20407;-81
2021/04/21 17:24:08;;;;;;;17.90;16.07;;;;;;;;;;4930555;29;20499;-85
2021/04/21 17:26:38;;;;;;;18.63;16.37;;;;;;;;;;4926420;29;20439;-85
2021/04/21 17:29:07;;;;;;;18.53;16.07;;;;;;;;;;4928577;29;20966;-85
2021/04/21 17:31:50;;;;;;;15.20;13.77;;;;;;;;;;4930601;29;20454;-88
2021/04/21 17:34:29;;;;;;;16.73;15.03;;;;;;;;;;4961975;29;20436;-85
2021/04/21 17:37:10;;;;;;;14.60;13.10;;;;;;;;;;4964196;29;20402;-85
2021/04/21 17:39:45;;;;;;;15.47;13.43;;;;;;;;;;4963021;29;20420;-85
2021/04/21 17:42:28;;;;;;;13.57;11.67;;;;;;;;;;4963001;29;20406;-85
2021/04/21 17:45:31;;;;;;;14.00;12.70;;;;;;;;;;4967593;29;21052;-87
2021/04/21 17:48:40;;;;;;;14.17;12.83;;;;;;;;;;4990138;28;20422;-86
2021/04/21 17:51:29;;;;;;;15.33;10.37;;;;;;;;;;5007478;28;20460;-88
2021/04/21 17:54:22;;;;;;;11.73;10.53;;;;;;;;;;5008527;28;20444;-87
2021/04/21 17:56:57;;;;;;;11.17;10.07;;;;;;;;;;5005890;28;20400;-87
2021/04/21 18:00:06;;;;;;;;;;;;;;;;;;;;;
2021/04/21 18:02:44;;;;;;;10.80;8.60;;;;;;;;;;5007408;28;20435;-87
2021/04/21 18:09:14;;;;;;;8.67;7.97;;;;;;;;;;5013376;28;20447;-87
2021/04/21 18:11:55;;;;;;;;;;;;;;;;;;;;;
2021/04/21 18:17:52;;;;;;;;;;;;;;;;;;;;;
2021/04/21 18:24:19;;;;;;;5.10;4.00;;;;;;;;;;5001625;28;20902;-85
2021/04/21 18:28:21;;;;;;;;;;;;;;;;;;;;;
2021/04/21 18:35:04;;;;;;;5.60;4.03;;;;;;;;;;5017340;28;20450;-86
2021/04/21 18:44:47;;;;;;;3.80;3.40;;;;;;;;;;4976939;28;20423;-86
2021/04/21 18:48:02;;;;;;;5.47;3.57;;;;;;;;;;4975033;28;20499;-86
2021/04/21 18:51:35;;;;;;;3.53;3.03;;;;;;;;;;4986253;28;20482;-86
2021/04/21 18:55:06;;;;;;;4.40;2.70;;;;;;;;;;5019321;28;20465;-85
2021/04/21 18:58:43;;;;;;;5.43;2.40;;;;;;;;;;5032897;28;20491;-86
2021/04/21 19:02:14;;;;;;;;;;;;;;;;;;;;;
2021/04/21 19:04:50;;;;;;;8.50;2.80;;;;;;;;;;5008173;28;20460;-85
2021/04/21 19:07:40;;;;;;;4.13;2.57;;;;;;;;;;5027497;28;20415;-86
2021/04/21 19:10:40;;;;;;;5.07;2.63;;;;;;;;;;5025546;28;20657;-86
2021/04/21 19:13:29;;;;;;;6.23;2.63;;;;;;;;;;5026339;28;20400;-86
2021/04/21 19:16:16;;;;;;;4.63;2.23;;;;;;;;;;5027107;28;20409;-87
2021/04/21 19:19:29;;;;;;;;;;;;;;;;;;;;;
2021/04/21 19:22:27;;;;;;;9.87;3.07;;;;;;;;;;5016767;28;20490;-86
2021/04/21 19:28:18;;;;;;;4.93;3.30;;;;;;;;;;5026874;28;20427;-85
2021/04/21 19:30:45;;;;;;;11.73;3.90;;;;;;;;;;5012864;28;20430;-85
2021/04/21 19:33:26;;;;;;;3.63;2.77;;;;;;;;;;5034958;28;20422;-86